createdAt,value
2022-11-16T00:01:01.475Z,9.40
2022-11-16T00:03:29.848Z,9.70
2022-11-16T00:06:00.822Z,9.30
2022-11-16T00:08:34.530Z,9.40
2022-11-16T00:11:06.631Z,9.30
2022-11-16T00:13:35.423Z,9.30
2022-11-16T00:16:06.000Z,9.20
2022-11-16T00:18:34.178Z,9.20
2022-11-16T00:21:04.597Z,9.20
2022-11-16T00:23:35.328Z,9.10
2022-11-16T00:26:07.847Z,9.00
2022-11-16T00:28:35.745Z,8.80
2022-11-16T00:31:07.121Z,8.80
2022-11-16T00:33:34.667Z,8.80
2022-11-16T00:36:05.881Z,8.80
2022-11-16T00:38:33.906Z,8.70
2022-11-16T00:41:01.519Z,8.70
2022-11-16T00:43:29.108Z,8.70
2022-11-16T00:45:56.258Z,8.70
2022-11-16T00:48:26.340Z,8.70
2022-11-16T00:50:53.577Z,8.80
2022-11-16T00:53:21.612Z,8.70
2022-11-16T00:55:51.464Z,8.80
2022-11-16T00:58:18.756Z,8.80
2022-11-16T01:00:50.912Z,8.80
2022-11-16T01:03:18.346Z,8.90
2022-11-16T01:05:45.717Z,8.80
2022-11-16T01:08:13.267Z,8.80
2022-11-16T01:10:42.872Z,8.80
2022-11-16T01:13:11.440Z,8.80
2022-11-16T01:15:38.895Z,8.80
2022-11-16T01:18:08.713Z,8.80
2022-11-16T01:20:40.156Z,8.70
2022-11-16T01:23:07.708Z,8.60
2022-11-16T01:25:34.749Z,8.40
2022-11-16T01:28:04.319Z,8.40
2022-11-16T01:30:31.521Z,8.30
2022-11-16T01:32:58.822Z,8.20
2022-11-16T01:35:25.815Z,8.20
2022-11-16T01:37:53.475Z,8.20
2022-11-16T01:40:20.537Z,8.10
2022-11-16T01:42:50.346Z,8.20
2022-11-16T01:45:31.198Z,8.20
2022-11-16T01:47:58.804Z,8.20
2022-11-16T01:50:30.371Z,8.30
2022-11-16T01:53:00.822Z,8.40
2022-11-16T01:55:30.157Z,8.50
2022-11-16T01:57:57.669Z,8.60
2022-11-16T02:00:29.845Z,8.70
2022-11-16T02:03:00.069Z,8.60
2022-11-16T02:05:38.363Z,8.70
2022-11-16T02:08:20.644Z,8.60
2022-11-16T02:11:05.870Z,8.60
2022-11-16T02:13:58.278Z,8.60
2022-11-16T02:16:44.370Z,8.50
2022-11-16T02:19:33.379Z,8.40
2022-11-16T02:22:32.293Z,8.50
2022-11-16T02:25:11.823Z,8.50
2022-11-16T02:28:02.529Z,8.50
2022-11-16T02:30:32.796Z,8.60
2022-11-16T02:33:13.361Z,8.60
2022-11-16T02:35:54.360Z,8.60
2022-11-16T02:38:27.012Z,8.60
2022-11-16T02:41:02.440Z,8.60
2022-11-16T02:43:38.282Z,8.60
2022-11-16T02:46:10.655Z,8.60
2022-11-16T02:48:43.482Z,8.60
2022-11-16T02:51:12.032Z,8.50
2022-11-16T02:53:57.776Z,8.60
2022-11-16T02:56:28.789Z,8.60
2022-11-16T02:58:58.130Z,8.60
2022-11-16T03:04:21.550Z,8.60
2022-11-16T03:06:51.457Z,8.70
2022-11-16T03:09:24.391Z,8.70
2022-11-16T03:11:58.576Z,8.80
2022-11-16T03:14:47.166Z,8.80
2022-11-16T03:17:22.798Z,8.80
2022-11-16T03:20:05.016Z,8.80
2022-11-16T03:23:11.499Z,8.80
2022-11-16T03:25:51.710Z,8.80
2022-11-16T03:28:26.100Z,8.80
2022-11-16T03:31:00.200Z,8.90
2022-11-16T03:33:32.771Z,8.90
2022-11-16T03:36:02.609Z,8.80
2022-11-16T03:38:34.139Z,8.80
2022-11-16T03:41:04.079Z,8.80
2022-11-16T03:43:33.342Z,8.80
2022-11-16T03:46:00.879Z,8.80
2022-11-16T03:48:36.644Z,8.70
2022-11-16T03:51:05.145Z,8.70
2022-11-16T03:53:32.794Z,8.70
2022-11-16T03:55:59.945Z,8.70
2022-11-16T03:58:27.371Z,8.60
2022-11-16T04:00:57.177Z,8.60
2022-11-16T04:03:24.603Z,8.60
2022-11-16T04:05:54.276Z,8.50
2022-11-16T04:08:21.734Z,8.50
2022-11-16T04:10:48.879Z,8.50
2022-11-16T04:13:20.885Z,8.50
2022-11-16T04:15:50.256Z,8.50
2022-11-16T04:18:19.945Z,8.50
2022-11-16T04:20:47.491Z,8.50
2022-11-16T04:23:16.564Z,8.50
2022-11-16T04:25:45.211Z,8.60
2022-11-16T04:28:15.635Z,8.50
2022-11-16T04:30:52.438Z,8.40
2022-11-16T04:33:19.832Z,8.40
2022-11-16T04:35:51.576Z,8.30
2022-11-16T04:38:21.412Z,8.30
2022-11-16T04:40:48.648Z,8.30
2022-11-16T04:43:15.921Z,8.30
2022-11-16T04:45:42.944Z,8.30
2022-11-16T04:48:11.707Z,8.40
2022-11-16T04:50:39.389Z,8.30
2022-11-16T04:53:07.722Z,8.30
2022-11-16T04:55:37.887Z,8.30
2022-11-16T04:58:07.396Z,8.30
2022-11-16T05:00:36.867Z,8.30
2022-11-16T05:03:05.390Z,8.50
2022-11-16T05:05:34.884Z,8.40
2022-11-16T05:08:02.158Z,8.40
2022-11-16T05:10:29.457Z,8.40
2022-11-16T05:12:57.809Z,8.50
2022-11-16T05:15:29.554Z,8.60
2022-11-16T05:17:57.145Z,8.60
2022-11-16T05:20:24.192Z,8.60
2022-11-16T05:22:58.439Z,8.70
2022-11-16T05:25:32.501Z,8.80
2022-11-16T05:28:02.895Z,8.90
2022-11-16T05:30:30.040Z,8.90
2022-11-16T05:32:59.641Z,8.90
2022-11-16T05:35:29.233Z,8.90
2022-11-16T05:37:58.944Z,9.00
2022-11-16T05:40:28.554Z,8.90
2022-11-16T05:42:57.869Z,9.00
2022-11-16T05:45:24.942Z,9.00
2022-11-16T05:47:52.515Z,9.00
2022-11-16T05:50:21.761Z,9.00
2022-11-16T05:52:49.249Z,9.10
2022-11-16T05:55:18.701Z,9.10
2022-11-16T05:57:46.032Z,9.20
2022-11-16T06:00:13.885Z,9.20
2022-11-16T06:02:43.961Z,9.20
2022-11-16T06:08:11.521Z,9.10
2022-11-16T06:10:38.591Z,9.00
2022-11-16T06:13:05.941Z,8.90
2022-11-16T06:15:39.235Z,8.90
2022-11-16T06:18:11.605Z,8.80
2022-11-16T06:20:41.938Z,8.70
2022-11-16T06:23:09.251Z,8.70
2022-11-16T06:25:39.120Z,8.60
2022-11-16T06:28:08.248Z,8.50
2022-11-16T06:30:35.718Z,8.80
2022-11-16T06:33:05.605Z,8.50
2022-11-16T06:35:32.868Z,8.40
2022-11-16T06:38:00.172Z,8.40
2022-11-16T06:40:29.422Z,8.40
2022-11-16T06:42:59.606Z,8.50
2022-11-16T06:45:29.581Z,8.40
2022-11-16T06:47:56.907Z,8.40
2022-11-16T06:50:26.466Z,8.40
2022-11-16T06:52:53.747Z,8.30
2022-11-16T06:55:20.869Z,8.20
2022-11-16T06:57:48.438Z,8.20
2022-11-16T07:00:16.038Z,8.30
2022-11-16T07:02:45.564Z,8.10
2022-11-16T07:05:12.995Z,8.30
2022-11-16T07:07:40.306Z,8.10
2022-11-16T07:10:10.172Z,8.10
2022-11-16T07:12:37.945Z,8.10
2022-11-16T07:15:05.558Z,8.20
2022-11-16T07:17:34.101Z,8.20
2022-11-16T07:20:01.282Z,8.30
2022-11-16T07:22:28.551Z,8.30
2022-11-16T07:24:55.534Z,8.30
2022-11-16T07:27:23.106Z,8.30
2022-11-16T07:29:50.193Z,8.40
2022-11-16T07:32:17.507Z,8.30
2022-11-16T07:34:46.840Z,8.30
2022-11-16T07:37:14.147Z,8.20
2022-11-16T07:39:41.254Z,8.30
2022-11-16T07:42:08.683Z,8.30
2022-11-16T07:44:35.756Z,8.40
2022-11-16T07:47:03.047Z,8.40
2022-11-16T07:49:30.352Z,8.40
2022-11-16T07:51:57.725Z,8.40
2022-11-16T07:54:26.958Z,8.50
2022-11-16T07:56:58.055Z,8.50
2022-11-16T07:59:25.067Z,8.60
2022-11-16T08:01:52.398Z,8.70
2022-11-16T08:04:19.824Z,8.70
2022-11-16T08:06:47.411Z,8.70
2022-11-16T08:09:14.396Z,8.70
2022-11-16T08:11:41.892Z,8.70
2022-11-16T08:14:11.712Z,8.70
2022-11-16T08:16:41.553Z,8.80
2022-11-16T08:19:08.717Z,8.80
2022-11-16T08:21:36.449Z,8.80
2022-11-16T08:24:03.747Z,8.90
2022-11-16T08:26:33.621Z,9.00
2022-11-16T08:29:02.875Z,9.00
2022-11-16T08:31:30.184Z,9.10
2022-11-16T08:34:02.534Z,9.10
2022-11-16T08:36:32.311Z,9.20
2022-11-16T08:39:02.444Z,9.30
2022-11-16T08:41:34.993Z,9.20
2022-11-16T08:44:04.878Z,9.30
2022-11-16T08:46:32.174Z,9.30
2022-11-16T08:48:59.338Z,9.40
2022-11-16T08:51:27.022Z,9.40
2022-11-16T08:53:57.948Z,9.40
2022-11-16T08:56:25.844Z,9.40
2022-11-16T08:58:59.144Z,9.40
2022-11-16T09:01:31.417Z,9.40
2022-11-16T09:03:59.468Z,9.40
2022-11-16T09:06:27.725Z,9.30
2022-11-16T09:08:55.268Z,9.30
2022-11-16T09:11:26.188Z,9.30
2022-11-16T09:13:54.893Z,9.20
2022-11-16T09:16:23.154Z,9.20
2022-11-16T09:18:51.758Z,9.10
2022-11-16T09:21:23.174Z,9.00
2022-11-16T09:23:51.285Z,8.90
2022-11-16T09:26:19.990Z,8.90
2022-11-16T09:28:48.413Z,8.80
2022-11-16T09:31:23.587Z,8.70
2022-11-16T09:33:51.373Z,8.60
2022-11-16T09:36:19.414Z,8.50
2022-11-16T09:39:14.356Z,8.60
2022-11-16T09:42:12.116Z,8.40
2022-11-16T09:45:05.545Z,8.40
2022-11-16T09:47:38.717Z,8.30
2022-11-16T09:50:15.928Z,8.00
2022-11-16T09:52:49.328Z,7.80
2022-11-16T09:55:33.189Z,7.70
2022-11-16T09:58:11.603Z,7.70
2022-11-16T10:00:44.151Z,7.70
2022-11-16T10:03:14.447Z,7.70
2022-11-16T10:06:00.230Z,7.70
2022-11-16T10:08:45.495Z,7.60
2022-11-16T10:11:43.614Z,7.50
2022-11-16T10:14:18.001Z,7.40
2022-11-16T10:16:54.017Z,7.40
2022-11-16T10:19:21.576Z,7.40
2022-11-16T10:22:15.088Z,7.40
2022-11-16T10:25:00.302Z,7.50
2022-11-16T10:27:51.852Z,7.50
2022-11-16T10:30:23.004Z,7.50
2022-11-16T10:33:10.962Z,7.50
2022-11-16T10:35:46.374Z,7.50
2022-11-16T10:38:21.791Z,7.60
2022-11-16T10:41:04.816Z,7.60
2022-11-16T10:43:35.633Z,7.60
2022-11-16T10:46:12.748Z,7.60
2022-11-16T10:48:51.717Z,7.60
2022-11-16T10:51:19.446Z,7.60
2022-11-16T10:53:49.070Z,7.60
2022-11-16T10:56:29.110Z,7.60
2022-11-16T10:58:58.443Z,7.60
2022-11-16T11:01:44.286Z,7.60
2022-11-16T11:04:21.566Z,7.50
2022-11-16T11:06:54.572Z,7.50
2022-11-16T11:09:24.662Z,7.50
2022-11-16T11:12:13.267Z,7.50
2022-11-16T11:14:40.554Z,7.40
2022-11-16T11:17:12.169Z,7.40
2022-11-16T11:19:39.321Z,7.40
2022-11-16T11:22:14.740Z,7.40
2022-11-16T11:24:50.269Z,7.40
2022-11-16T11:27:23.724Z,7.40
2022-11-16T11:29:57.426Z,7.40
2022-11-16T11:32:32.856Z,7.40
2022-11-16T11:35:03.554Z,7.40
2022-11-16T11:37:37.269Z,7.50
2022-11-16T11:40:20.877Z,7.50
2022-11-16T11:42:58.622Z,7.50
2022-11-16T11:45:33.381Z,7.40
2022-11-16T11:48:42.331Z,7.40
2022-11-16T11:51:12.200Z,7.40
2022-11-16T11:53:49.336Z,7.40
2022-11-16T11:56:17.665Z,7.40
2022-11-16T11:58:46.935Z,7.40
2022-11-16T12:01:22.197Z,7.30
2022-11-16T12:04:41.214Z,7.40
2022-11-16T12:07:15.021Z,7.30
2022-11-16T12:10:16.207Z,7.20
2022-11-16T12:13:08.653Z,7.20
2022-11-16T12:16:00.547Z,7.10
2022-11-16T12:18:51.088Z,7.10
2022-11-16T12:21:31.843Z,7.10
2022-11-16T12:24:30.443Z,7.10
2022-11-16T12:27:12.608Z,7.20
2022-11-16T12:30:08.426Z,7.10
2022-11-16T12:32:47.920Z,7.20
2022-11-16T12:35:48.666Z,7.20
2022-11-16T12:38:52.618Z,7.20
2022-11-16T12:41:56.381Z,7.20
2022-11-16T12:44:35.480Z,7.20
2022-11-16T12:47:14.419Z,7.10
2022-11-16T12:49:47.463Z,7.10
2022-11-16T12:52:21.271Z,7.00
2022-11-16T12:55:31.650Z,7.00
2022-11-16T12:58:01.677Z,6.90
2022-11-16T13:00:32.239Z,6.90
2022-11-16T13:03:14.810Z,6.90
2022-11-16T13:05:42.211Z,7.00
2022-11-16T13:08:27.529Z,7.00
2022-11-16T13:11:06.962Z,7.10
2022-11-16T13:13:36.672Z,7.10
2022-11-16T13:16:06.450Z,7.10
2022-11-16T13:18:37.690Z,7.10
2022-11-16T13:21:10.646Z,7.20
2022-11-16T13:24:02.862Z,7.20
2022-11-16T13:26:33.382Z,7.30
2022-11-16T13:29:03.119Z,7.30
2022-11-16T13:32:02.597Z,7.30
2022-11-16T13:34:35.642Z,7.20
2022-11-16T13:37:38.345Z,7.30
2022-11-16T13:40:05.528Z,7.40
2022-11-16T13:42:57.393Z,7.40
2022-11-16T13:45:50.713Z,7.50
2022-11-16T13:48:27.573Z,7.50
2022-11-16T13:50:57.163Z,7.50
2022-11-16T13:56:14.725Z,7.40
2022-11-16T13:58:49.047Z,7.40
2022-11-16T14:01:17.186Z,7.30
2022-11-16T14:03:46.133Z,7.20
2022-11-16T14:06:13.189Z,7.20
2022-11-16T14:08:40.537Z,7.10
2022-11-16T14:11:33.878Z,7.00
2022-11-16T14:14:03.695Z,7.00
2022-11-16T14:16:41.644Z,7.00
2022-11-16T14:19:49.434Z,6.90
2022-11-16T14:22:54.396Z,6.90
2022-11-16T14:25:39.327Z,6.90
2022-11-16T14:28:09.276Z,7.00
2022-11-16T14:30:51.350Z,7.00
2022-11-16T14:33:31.836Z,6.80
2022-11-16T14:36:01.019Z,6.80
2022-11-16T14:38:30.983Z,6.70
2022-11-16T14:41:00.093Z,6.70
2022-11-16T14:43:41.562Z,6.60
2022-11-16T14:46:21.575Z,6.60
2022-11-16T14:48:49.480Z,6.60
2022-11-16T14:51:22.717Z,6.50
2022-11-16T14:53:53.791Z,6.50
2022-11-16T14:56:21.372Z,6.50
2022-11-16T14:58:54.793Z,6.50
2022-11-16T15:01:25.993Z,6.40
2022-11-16T15:03:54.947Z,6.30
2022-11-16T15:06:26.108Z,6.20
2022-11-16T15:08:59.375Z,6.20
2022-11-16T15:11:39.176Z,6.20
2022-11-16T15:14:06.284Z,6.10
2022-11-16T15:16:33.742Z,6.10
2022-11-16T15:19:02.240Z,6.10
2022-11-16T15:21:29.581Z,6.10
2022-11-16T15:26:44.316Z,6.00
2022-11-16T15:29:19.653Z,6.00
2022-11-16T15:31:48.699Z,6.00
2022-11-16T15:34:19.616Z,5.90
2022-11-16T15:36:47.216Z,5.90
2022-11-16T15:39:20.469Z,6.00
2022-11-16T15:41:58.762Z,6.00
2022-11-16T15:44:31.568Z,6.00
2022-11-16T15:46:59.355Z,5.90
2022-11-16T15:49:37.594Z,5.90
2022-11-16T15:52:05.622Z,5.90
2022-11-16T15:54:36.754Z,5.80
2022-11-16T15:57:09.211Z,5.90
2022-11-16T15:59:40.184Z,5.80
2022-11-16T16:02:21.658Z,5.90
2022-11-16T16:04:49.263Z,6.10
2022-11-16T16:07:36.412Z,6.00
2022-11-16T16:10:13.884Z,6.00
2022-11-16T16:12:58.281Z,6.00
2022-11-16T16:15:26.620Z,5.90
2022-11-16T16:17:58.257Z,5.90
2022-11-16T16:20:28.335Z,5.80
2022-11-16T16:23:07.020Z,5.80
2022-11-16T16:25:37.004Z,5.80
2022-11-16T16:28:04.738Z,5.90
2022-11-16T16:30:34.064Z,5.90
2022-11-16T16:33:03.834Z,5.90
2022-11-16T16:35:30.997Z,5.90
2022-11-16T16:38:01.625Z,5.80
2022-11-16T16:40:29.250Z,5.80
2022-11-16T16:42:59.376Z,5.80
2022-11-16T16:45:35.929Z,5.70
2022-11-16T16:48:03.865Z,5.70
2022-11-16T16:50:33.450Z,5.70
2022-11-16T16:53:00.848Z,5.70
2022-11-16T16:55:30.628Z,5.70
2022-11-16T16:58:02.416Z,5.60
2022-11-16T17:00:29.575Z,5.60
2022-11-16T17:02:56.837Z,5.60
2022-11-16T17:05:24.529Z,5.70
2022-11-16T17:07:57.003Z,5.60
2022-11-16T17:10:28.873Z,5.60
2022-11-16T17:12:56.867Z,5.60
2022-11-16T17:15:26.405Z,5.50
2022-11-16T17:17:53.949Z,5.60
2022-11-16T17:20:21.060Z,5.60
2022-11-16T17:22:48.401Z,5.50
2022-11-16T17:25:18.080Z,5.50
2022-11-16T17:27:45.488Z,5.50
2022-11-16T17:30:14.230Z,5.50
2022-11-16T17:32:44.321Z,5.50
2022-11-16T17:35:11.558Z,5.50
2022-11-16T17:37:38.913Z,5.40
2022-11-16T17:40:08.976Z,5.50
2022-11-16T17:42:38.988Z,5.50
2022-11-16T17:45:08.790Z,5.50
2022-11-16T17:47:36.120Z,5.50
2022-11-16T17:50:03.346Z,5.60
2022-11-16T17:52:33.066Z,5.60
2022-11-16T17:55:00.102Z,5.50
2022-11-16T17:57:30.143Z,5.40
2022-11-16T17:59:59.650Z,5.40
2022-11-16T18:02:26.948Z,5.30
2022-11-16T18:04:54.535Z,5.40
2022-11-16T18:07:22.013Z,5.40
2022-11-16T18:09:49.135Z,5.40
2022-11-16T18:12:16.553Z,5.30
2022-11-16T18:15:06.417Z,5.40
2022-11-16T18:17:33.414Z,5.40
2022-11-16T18:20:00.593Z,5.70
2022-11-16T18:22:30.353Z,5.40
2022-11-16T18:24:57.888Z,5.40
2022-11-16T18:27:25.317Z,5.40
2022-11-16T18:29:52.361Z,5.40
2022-11-16T18:32:19.995Z,5.30
2022-11-16T18:34:47.002Z,5.30
2022-11-16T18:37:14.312Z,5.20
2022-11-16T18:39:41.554Z,5.20
2022-11-16T18:42:11.794Z,5.20
2022-11-16T18:44:38.792Z,5.20
2022-11-16T18:47:10.924Z,5.20
2022-11-16T18:49:37.878Z,5.30
2022-11-16T18:52:05.212Z,5.30
2022-11-16T18:54:35.881Z,5.30
2022-11-16T18:57:03.399Z,5.30
2022-11-16T18:59:30.389Z,5.30
2022-11-16T19:01:58.297Z,5.30
2022-11-16T19:04:27.811Z,5.40
2022-11-16T19:06:55.309Z,5.30
2022-11-16T19:09:23.180Z,5.30
2022-11-16T19:11:51.285Z,5.30
2022-11-16T19:14:18.278Z,5.20
2022-11-16T19:16:52.481Z,5.20
2022-11-16T19:19:21.336Z,5.20
2022-11-16T19:21:48.893Z,5.10
2022-11-16T19:24:15.895Z,5.10
2022-11-16T19:26:45.792Z,5.00
2022-11-16T19:29:12.948Z,5.00
2022-11-16T19:31:40.339Z,4.90
2022-11-16T19:34:11.892Z,4.90
2022-11-16T19:36:39.594Z,4.80
2022-11-16T19:39:06.911Z,4.80
2022-11-16T19:41:36.581Z,4.70
2022-11-16T19:44:04.111Z,4.70
2022-11-16T19:46:33.946Z,4.70
2022-11-16T19:49:03.562Z,4.70
2022-11-16T19:51:34.714Z,4.70
2022-11-16T19:54:04.394Z,4.70
2022-11-16T19:56:32.704Z,4.70
2022-11-16T19:58:59.997Z,4.70
2022-11-16T20:01:31.734Z,4.70
2022-11-16T20:04:03.548Z,4.70
2022-11-16T20:06:36.108Z,4.70
2022-11-16T20:09:06.811Z,4.70
2022-11-16T20:11:35.645Z,4.70
2022-11-16T20:14:05.016Z,4.70
2022-11-16T20:16:38.769Z,4.70
2022-11-16T20:19:07.493Z,4.70
2022-11-16T20:21:40.020Z,4.70
2022-11-16T20:24:11.990Z,4.70
2022-11-16T20:26:49.238Z,4.80
2022-11-16T20:29:18.443Z,4.80
2022-11-16T20:31:46.481Z,4.80
2022-11-16T20:34:17.579Z,4.80
2022-11-16T20:36:46.597Z,4.80
2022-11-16T20:39:15.591Z,4.70
2022-11-16T20:41:43.372Z,4.60
2022-11-16T20:44:16.869Z,4.60
2022-11-16T20:46:44.921Z,4.60
2022-11-16T20:49:14.255Z,4.70
2022-11-16T20:51:44.051Z,4.70
2022-11-16T20:54:11.305Z,4.70
2022-11-16T20:56:38.554Z,4.60
2022-11-16T20:59:05.666Z,4.60
2022-11-16T21:01:33.274Z,4.60
2022-11-16T21:04:02.789Z,4.50
2022-11-16T21:06:30.700Z,4.50
2022-11-16T21:09:00.856Z,4.40
2022-11-16T21:11:30.808Z,4.40
2022-11-16T21:13:57.901Z,4.40
2022-11-16T21:16:25.386Z,4.30
2022-11-16T21:18:54.056Z,4.30
2022-11-16T21:21:21.689Z,4.30
2022-11-16T21:23:48.824Z,4.30
2022-11-16T21:26:16.155Z,4.30
2022-11-16T21:28:43.239Z,4.20
2022-11-16T21:31:15.277Z,4.20
2022-11-16T21:33:46.060Z,4.20
2022-11-16T21:36:18.451Z,4.10
2022-11-16T21:38:45.884Z,4.10
2022-11-16T21:41:15.081Z,4.00
2022-11-16T21:43:42.528Z,4.00
2022-11-16T21:46:16.931Z,4.00
2022-11-16T21:48:46.807Z,4.00
2022-11-16T21:51:16.471Z,4.00
2022-11-16T21:53:43.620Z,4.00
2022-11-16T21:56:16.706Z,4.00
2022-11-16T21:58:46.651Z,3.90
2022-11-16T22:01:16.983Z,3.90
2022-11-16T22:03:44.564Z,3.80
2022-11-16T22:06:16.060Z,3.70
2022-11-16T22:08:43.683Z,3.80
2022-11-16T22:11:16.923Z,3.70
2022-11-16T22:13:44.332Z,3.70
2022-11-16T22:16:13.848Z,3.70
2022-11-16T22:18:44.007Z,3.70
2022-11-16T22:21:12.088Z,3.70
2022-11-16T22:23:42.001Z,3.70
2022-11-16T22:26:11.971Z,3.70
2022-11-16T22:28:39.778Z,3.70
2022-11-16T22:31:11.248Z,3.60
2022-11-16T22:33:40.945Z,3.60
2022-11-16T22:36:10.182Z,3.60
2022-11-16T22:38:37.662Z,3.50
2022-11-16T22:41:05.432Z,3.40
2022-11-16T22:43:36.283Z,3.50
2022-11-16T22:46:06.517Z,3.40
2022-11-16T22:48:39.085Z,3.40
2022-11-16T22:51:20.162Z,3.40
2022-11-16T22:53:47.395Z,3.40
2022-11-16T22:56:17.242Z,3.40
2022-11-16T22:58:46.876Z,3.30
2022-11-16T23:01:14.431Z,3.40
2022-11-16T23:03:41.607Z,3.40
2022-11-16T23:06:09.201Z,3.40
2022-11-16T23:08:36.654Z,3.40
2022-11-16T23:11:03.962Z,3.40
2022-11-16T23:13:33.569Z,3.40
2022-11-16T23:16:04.880Z,3.40
2022-11-16T23:18:32.005Z,3.40
2022-11-16T23:21:01.537Z,3.30
2022-11-16T23:23:28.894Z,3.20
2022-11-16T23:25:58.647Z,3.10
2022-11-16T23:28:25.941Z,3.10
2022-11-16T23:30:53.385Z,3.10
2022-11-16T23:33:22.633Z,3.10
2022-11-16T23:35:49.959Z,3.10
2022-11-16T23:38:19.540Z,3.20
2022-11-16T23:40:47.045Z,3.20
2022-11-16T23:43:16.388Z,3.30
2022-11-16T23:45:44.665Z,3.40
2022-11-16T23:48:14.517Z,3.40
2022-11-16T23:50:45.125Z,3.40
2022-11-16T23:53:14.869Z,3.40
2022-11-16T23:55:44.355Z,3.40
2022-11-16T23:58:17.047Z,3.50
